Terminal Aerodrome Forecast
Issued by NWS

Home | Current Version | Previous Version | Text Only | Print | Product List | Glossary Off
Versions: 1 2 3 4 5 6 7 8 9 10 11 12 13 14 15 16 17 18 19 20 21 22 23

000
FTUS45 KGGW 241100
TAFOLF
TAF
KOLF 241133Z 2412/2512 VRB05KT P6SM BKN120
     FM241600 08013KT P6SM BKN120
     FM250000 09009KT P6SM BKN090
     FM250600 VRB03KT P6SM VCSH BKN160=

USA.gov is the U.S. government's official web portal to all federal, state and local government web resources and services.